sensor_id;sensor_type;location;lat;lon;timestamp;P1;durP1;ratioP1;P2;durP2;ratioP2
54545;SDS011;40444;45.184;9.850;2024-02-21T00:01:31;51.67;;;36.45;;
54545;SDS011;40444;45.184;9.850;2024-02-21T00:04:11;47.88;;;34.45;;
54545;SDS011;40444;45.184;9.850;2024-02-21T00:06:40;44.97;;;32.83;;
54545;SDS011;40444;45.184;9.850;2024-02-21T00:09:08;47.80;;;34.15;;
54545;SDS011;40444;45.184;9.850;2024-02-21T00:11:37;48.45;;;32.70;;
54545;SDS011;40444;45.184;9.850;2024-02-21T00:14:06;50.72;;;36.22;;
54545;SDS011;40444;45.184;9.850;2024-02-21T00:16:34;59.13;;;39.80;;
54545;SDS011;40444;45.184;9.850;2024-02-21T00:19:03;54.58;;;38.08;;
54545;SDS011;40444;45.184;9.850;2024-02-21T00:21:32;39.40;;;31.75;;
54545;SDS011;40444;45.184;9.850;2024-02-21T00:24:01;42.50;;;32.53;;
54545;SDS011;40444;45.184;9.850;2024-02-21T00:26:30;45.33;;;32.45;;
54545;SDS011;40444;45.184;9.850;2024-02-21T00:28:58;57.50;;;39.28;;
54545;SDS011;40444;45.184;9.850;2024-02-21T00:31:27;61.22;;;41.40;;
54545;SDS011;40444;45.184;9.850;2024-02-21T00:33:55;62.75;;;42.53;;
54545;SDS011;40444;45.184;9.850;2024-02-21T00:36:24;73.28;;;45.05;;
54545;SDS011;40444;45.184;9.850;2024-02-21T00:38:53;89.07;;;53.38;;
54545;SDS011;40444;45.184;9.850;2024-02-21T00:41:22;84.40;;;50.17;;
54545;SDS011;40444;45.184;9.850;2024-02-21T00:43:50;77.78;;;50.17;;
54545;SDS011;40444;45.184;9.850;2024-02-21T00:46:19;92.07;;;56.85;;
54545;SDS011;40444;45.184;9.850;2024-02-21T00:48:47;86.05;;;52.03;;
54545;SDS011;40444;45.184;9.850;2024-02-21T00:51:16;91.18;;;56.40;;
54545;SDS011;40444;45.184;9.850;2024-02-21T00:53:44;84.30;;;52.15;;
54545;SDS011;40444;45.184;9.850;2024-02-21T00:56:13;83.75;;;49.53;;
54545;SDS011;40444;45.184;9.850;2024-02-21T00:58:41;68.75;;;43.70;;
54545;SDS011;40444;45.184;9.850;2024-02-21T01:01:10;55.22;;;37.75;;
54545;SDS011;40444;45.184;9.850;2024-02-21T01:03:39;51.15;;;34.97;;
54545;SDS011;40444;45.184;9.850;2024-02-21T01:06:08;47.67;;;33.78;;
54545;SDS011;40444;45.184;9.850;2024-02-21T01:08:37;52.00;;;36.08;;
54545;SDS011;40444;45.184;9.850;2024-02-21T01:11:06;56.20;;;37.13;;
54545;SDS011;40444;45.184;9.850;2024-02-21T01:13:35;53.55;;;38.00;;
54545;SDS011;40444;45.184;9.850;2024-02-21T01:16:03;47.50;;;32.40;;
54545;SDS011;40444;45.184;9.850;2024-02-21T01:18:33;42.13;;;31.20;;
54545;SDS011;40444;45.184;9.850;2024-02-21T01:21:02;43.17;;;31.25;;
54545;SDS011;40444;45.184;9.850;2024-02-21T01:23:30;43.92;;;30.92;;
54545;SDS011;40444;45.184;9.850;2024-02-21T01:25:59;45.70;;;30.75;;
54545;SDS011;40444;45.184;9.850;2024-02-21T01:28:28;47.83;;;32.60;;
54545;SDS011;40444;45.184;9.850;2024-02-21T01:30:56;59.58;;;39.13;;
54545;SDS011;40444;45.184;9.850;2024-02-21T01:33:25;66.45;;;42.35;;
54545;SDS011;40444;45.184;9.850;2024-02-21T01:35:54;71.38;;;44.95;;
54545;SDS011;40444;45.184;9.850;2024-02-21T01:38:22;87.28;;;51.97;;
54545;SDS011;40444;45.184;9.850;2024-02-21T01:40:51;83.43;;;52.90;;
54545;SDS011;40444;45.184;9.850;2024-02-21T01:43:20;95.88;;;55.28;;
54545;SDS011;40444;45.184;9.850;2024-02-21T01:45:50;86.30;;;53.10;;
54545;SDS011;40444;45.184;9.850;2024-02-21T01:48:24;78.32;;;49.88;;
54545;SDS011;40444;45.184;9.850;2024-02-21T01:50:54;72.70;;;44.88;;
54545;SDS011;40444;45.184;9.850;2024-02-21T01:53:24;58.53;;;39.65;;
54545;SDS011;40444;45.184;9.850;2024-02-21T01:55:57;61.33;;;40.20;;
54545;SDS011;40444;45.184;9.850;2024-02-21T01:58:27;65.28;;;41.33;;
54545;SDS011;40444;45.184;9.850;2024-02-21T02:00:58;73.28;;;45.28;;
54545;SDS011;40444;45.184;9.850;2024-02-21T02:03:27;67.13;;;43.42;;
54545;SDS011;40444;45.184;9.850;2024-02-21T02:05:56;67.00;;;41.55;;
54545;SDS011;40444;45.184;9.850;2024-02-21T02:08:25;62.72;;;38.80;;
54545;SDS011;40444;45.184;9.850;2024-02-21T02:10:54;54.13;;;38.85;;
54545;SDS011;40444;45.184;9.850;2024-02-21T02:13:22;52.92;;;35.30;;
54545;SDS011;40444;45.184;9.850;2024-02-21T02:15:51;53.15;;;36.67;;
54545;SDS011;40444;45.184;9.850;2024-02-21T02:18:20;50.53;;;35.45;;
54545;SDS011;40444;45.184;9.850;2024-02-21T02:20:48;51.45;;;35.10;;
54545;SDS011;40444;45.184;9.850;2024-02-21T02:25:49;41.33;;;31.35;;
54545;SDS011;40444;45.184;9.850;2024-02-21T02:28:20;38.22;;;29.20;;
54545;SDS011;40444;45.184;9.850;2024-02-21T02:30:49;45.65;;;33.25;;
54545;SDS011;40444;45.184;9.850;2024-02-21T02:33:18;47.00;;;33.63;;
54545;SDS011;40444;45.184;9.850;2024-02-21T02:35:47;41.20;;;31.55;;
54545;SDS011;40444;45.184;9.850;2024-02-21T02:38:16;49.85;;;35.72;;
54545;SDS011;40444;45.184;9.850;2024-02-21T02:40:45;50.30;;;35.05;;
54545;SDS011;40444;45.184;9.850;2024-02-21T02:43:13;41.97;;;32.50;;
54545;SDS011;40444;45.184;9.850;2024-02-21T02:45:42;44.92;;;33.38;;
54545;SDS011;40444;45.184;9.850;2024-02-21T02:48:11;39.75;;;30.60;;
54545;SDS011;40444;45.184;9.850;2024-02-21T02:50:39;41.20;;;31.80;;
54545;SDS011;40444;45.184;9.850;2024-02-21T02:53:08;41.10;;;32.65;;
54545;SDS011;40444;45.184;9.850;2024-02-21T02:55:36;42.13;;;34.13;;
54545;SDS011;40444;45.184;9.850;2024-02-21T02:58:04;42.83;;;32.00;;
54545;SDS011;40444;45.184;9.850;2024-02-21T03:00:33;45.50;;;33.22;;
54545;SDS011;40444;45.184;9.850;2024-02-21T03:03:04;43.33;;;32.17;;
54545;SDS011;40444;45.184;9.850;2024-02-21T03:05:32;43.33;;;33.88;;
54545;SDS011;40444;45.184;9.850;2024-02-21T03:08:04;40.72;;;30.75;;
54545;SDS011;40444;45.184;9.850;2024-02-21T03:10:34;38.25;;;30.92;;
54545;SDS011;40444;45.184;9.850;2024-02-21T03:13:03;42.83;;;32.90;;
54545;SDS011;40444;45.184;9.850;2024-02-21T03:15:32;40.58;;;30.88;;
54545;SDS011;40444;45.184;9.850;2024-02-21T03:18:00;40.42;;;31.60;;
54545;SDS011;40444;45.184;9.850;2024-02-21T03:20:29;41.30;;;30.77;;
54545;SDS011;40444;45.184;9.850;2024-02-21T03:22:58;38.35;;;30.05;;
54545;SDS011;40444;45.184;9.850;2024-02-21T03:25:27;46.75;;;31.75;;
54545;SDS011;40444;45.184;9.850;2024-02-21T03:27:56;39.53;;;30.73;;
54545;SDS011;40444;45.184;9.850;2024-02-21T03:30:24;44.60;;;34.17;;
54545;SDS011;40444;45.184;9.850;2024-02-21T03:32:53;44.75;;;34.08;;
54545;SDS011;40444;45.184;9.850;2024-02-21T03:35:21;51.70;;;36.80;;
54545;SDS011;40444;45.184;9.850;2024-02-21T03:37:54;51.88;;;36.17;;
54545;SDS011;40444;45.184;9.850;2024-02-21T03:40:22;46.10;;;34.88;;
54545;SDS011;40444;45.184;9.850;2024-02-21T03:42:51;49.80;;;37.65;;
54545;SDS011;40444;45.184;9.850;2024-02-21T03:45:19;50.97;;;35.92;;
54545;SDS011;40444;45.184;9.850;2024-02-21T03:47:48;48.45;;;36.03;;
54545;SDS011;40444;45.184;9.850;2024-02-21T03:50:16;51.05;;;37.50;;
54545;SDS011;40444;45.184;9.850;2024-02-21T03:52:45;51.25;;;37.65;;
54545;SDS011;40444;45.184;9.850;2024-02-21T03:55:13;46.50;;;35.33;;
54545;SDS011;40444;45.184;9.850;2024-02-21T03:57:41;49.50;;;37.10;;
54545;SDS011;40444;45.184;9.850;2024-02-21T04:00:10;53.72;;;38.92;;
54545;SDS011;40444;45.184;9.850;2024-02-21T04:02:39;53.45;;;39.70;;
54545;SDS011;40444;45.184;9.850;2024-02-21T04:05:08;53.90;;;39.58;;
54545;SDS011;40444;45.184;9.850;2024-02-21T04:07:39;74.78;;;43.08;;
54545;SDS011;40444;45.184;9.850;2024-02-21T04:10:08;60.53;;;43.15;;
54545;SDS011;40444;45.184;9.850;2024-02-21T04:12:36;73.90;;;46.28;;
54545;SDS011;40444;45.184;9.850;2024-02-21T04:15:06;67.82;;;46.47;;
54545;SDS011;40444;45.184;9.850;2024-02-21T04:17:35;75.82;;;48.70;;
54545;SDS011;40444;45.184;9.850;2024-02-21T04:20:04;129.82;;;51.85;;
54545;SDS011;40444;45.184;9.850;2024-02-21T04:22:34;77.80;;;49.30;;
54545;SDS011;40444;45.184;9.850;2024-02-21T04:25:02;81.80;;;50.78;;
54545;SDS011;40444;45.184;9.850;2024-02-21T04:27:32;90.15;;;54.85;;
54545;SDS011;40444;45.184;9.850;2024-02-21T04:30:00;87.18;;;50.75;;
54545;SDS011;40444;45.184;9.850;2024-02-21T04:32:28;82.15;;;49.75;;
54545;SDS011;40444;45.184;9.850;2024-02-21T04:34:56;78.60;;;49.83;;
54545;SDS011;40444;45.184;9.850;2024-02-21T04:37:25;83.65;;;50.40;;
54545;SDS011;40444;45.184;9.850;2024-02-21T04:39:54;86.18;;;52.88;;
54545;SDS011;40444;45.184;9.850;2024-02-21T04:42:22;80.95;;;50.80;;
54545;SDS011;40444;45.184;9.850;2024-02-21T04:44:50;73.72;;;49.25;;
54545;SDS011;40444;45.184;9.850;2024-02-21T04:47:19;73.68;;;48.92;;
54545;SDS011;40444;45.184;9.850;2024-02-21T04:49:48;72.85;;;48.00;;
54545;SDS011;40444;45.184;9.850;2024-02-21T04:52:16;70.55;;;46.10;;
54545;SDS011;40444;45.184;9.850;2024-02-21T04:54:45;71.07;;;47.50;;
54545;SDS011;40444;45.184;9.850;2024-02-21T04:57:13;74.00;;;49.92;;
54545;SDS011;40444;45.184;9.850;2024-02-21T04:59:45;67.97;;;47.90;;
54545;SDS011;40444;45.184;9.850;2024-02-21T05:02:15;72.57;;;49.72;;
54545;SDS011;40444;45.184;9.850;2024-02-21T05:04:44;69.95;;;48.30;;
54545;SDS011;40444;45.184;9.850;2024-02-21T05:07:13;71.97;;;49.20;;
54545;SDS011;40444;45.184;9.850;2024-02-21T05:09:42;79.40;;;53.85;;
54545;SDS011;40444;45.184;9.850;2024-02-21T05:12:11;71.93;;;50.67;;
54545;SDS011;40444;45.184;9.850;2024-02-21T05:14:40;71.15;;;49.80;;
54545;SDS011;40444;45.184;9.850;2024-02-21T05:17:09;64.43;;;45.95;;
54545;SDS011;40444;45.184;9.850;2024-02-21T05:19:38;68.75;;;47.95;;
54545;SDS011;40444;45.184;9.850;2024-02-21T05:22:06;63.63;;;44.47;;
54545;SDS011;40444;45.184;9.850;2024-02-21T05:24:35;63.88;;;45.25;;
54545;SDS011;40444;45.184;9.850;2024-02-21T05:27:04;58.17;;;42.95;;
54545;SDS011;40444;45.184;9.850;2024-02-21T05:29:33;61.28;;;43.17;;
54545;SDS011;40444;45.184;9.850;2024-02-21T05:32:01;58.50;;;41.83;;
54545;SDS011;40444;45.184;9.850;2024-02-21T05:34:30;61.35;;;44.05;;
54545;SDS011;40444;45.184;9.850;2024-02-21T05:36:59;60.05;;;44.00;;
54545;SDS011;40444;45.184;9.850;2024-02-21T05:39:28;68.68;;;46.78;;
54545;SDS011;40444;45.184;9.850;2024-02-21T05:41:57;65.43;;;46.80;;
54545;SDS011;40444;45.184;9.850;2024-02-21T05:44:25;69.38;;;49.17;;
54545;SDS011;40444;45.184;9.850;2024-02-21T05:46:55;68.35;;;48.42;;
54545;SDS011;40444;45.184;9.850;2024-02-21T05:49:24;63.50;;;45.25;;
54545;SDS011;40444;45.184;9.850;2024-02-21T05:51:52;59.20;;;42.15;;
54545;SDS011;40444;45.184;9.850;2024-02-21T05:54:21;57.22;;;42.47;;
54545;SDS011;40444;45.184;9.850;2024-02-21T05:56:50;58.95;;;43.33;;
54545;SDS011;40444;45.184;9.850;2024-02-21T05:59:19;58.00;;;43.33;;
54545;SDS011;40444;45.184;9.850;2024-02-21T06:01:55;61.83;;;45.65;;
54545;SDS011;40444;45.184;9.850;2024-02-21T06:04:26;61.03;;;45.22;;
54545;SDS011;40444;45.184;9.850;2024-02-21T06:06:54;60.25;;;44.20;;
54545;SDS011;40444;45.184;9.850;2024-02-21T06:09:23;59.78;;;42.80;;
54545;SDS011;40444;45.184;9.850;2024-02-21T06:11:52;58.92;;;43.00;;
54545;SDS011;40444;45.184;9.850;2024-02-21T06:14:20;61.17;;;43.65;;
54545;SDS011;40444;45.184;9.850;2024-02-21T06:16:49;57.58;;;42.90;;
54545;SDS011;40444;45.184;9.850;2024-02-21T06:19:17;56.03;;;41.80;;
54545;SDS011;40444;45.184;9.850;2024-02-21T06:21:46;55.40;;;40.30;;
54545;SDS011;40444;45.184;9.850;2024-02-21T06:24:15;50.67;;;38.47;;
54545;SDS011;40444;45.184;9.850;2024-02-21T06:26:44;50.15;;;37.60;;
54545;SDS011;40444;45.184;9.850;2024-02-21T06:29:19;50.90;;;37.17;;
54545;SDS011;40444;45.184;9.850;2024-02-21T06:31:47;47.20;;;37.13;;
54545;SDS011;40444;45.184;9.850;2024-02-21T06:34:16;51.22;;;39.95;;
54545;SDS011;40444;45.184;9.850;2024-02-21T06:36:45;52.95;;;38.28;;
54545;SDS011;40444;45.184;9.850;2024-02-21T06:39:14;54.63;;;39.30;;
54545;SDS011;40444;45.184;9.850;2024-02-21T06:41:42;52.42;;;37.60;;
54545;SDS011;40444;45.184;9.850;2024-02-21T06:44:11;49.03;;;36.88;;
54545;SDS011;40444;45.184;9.850;2024-02-21T06:46:40;49.83;;;37.47;;
54545;SDS011;40444;45.184;9.850;2024-02-21T06:49:08;48.85;;;37.72;;
54545;SDS011;40444;45.184;9.850;2024-02-21T06:51:37;49.20;;;37.80;;
54545;SDS011;40444;45.184;9.850;2024-02-21T06:54:06;47.13;;;35.55;;
54545;SDS011;40444;45.184;9.850;2024-02-21T06:56:35;50.08;;;37.80;;
54545;SDS011;40444;45.184;9.850;2024-02-21T06:59:04;45.85;;;36.28;;
54545;SDS011;40444;45.184;9.850;2024-02-21T07:01:33;52.38;;;39.50;;
54545;SDS011;40444;45.184;9.850;2024-02-21T07:04:02;53.60;;;39.65;;
54545;SDS011;40444;45.184;9.850;2024-02-21T07:06:31;52.50;;;39.47;;
54545;SDS011;40444;45.184;9.850;2024-02-21T07:09:02;49.53;;;38.85;;
54545;SDS011;40444;45.184;9.850;2024-02-21T07:11:31;50.70;;;39.10;;
54545;SDS011;40444;45.184;9.850;2024-02-21T07:14:00;53.78;;;41.65;;
54545;SDS011;40444;45.184;9.850;2024-02-21T07:16:32;52.22;;;40.72;;
54545;SDS011;40444;45.184;9.850;2024-02-21T07:19:01;55.13;;;44.00;;
54545;SDS011;40444;45.184;9.850;2024-02-21T07:21:30;51.20;;;39.88;;
54545;SDS011;40444;45.184;9.850;2024-02-21T07:23:59;48.88;;;38.63;;
54545;SDS011;40444;45.184;9.850;2024-02-21T07:26:27;48.78;;;36.90;;
54545;SDS011;40444;45.184;9.850;2024-02-21T07:28:56;49.33;;;37.35;;
54545;SDS011;40444;45.184;9.850;2024-02-21T07:31:25;46.03;;;36.30;;
54545;SDS011;40444;45.184;9.850;2024-02-21T07:33:54;42.15;;;34.92;;
54545;SDS011;40444;45.184;9.850;2024-02-21T07:36:29;44.08;;;34.65;;
54545;SDS011;40444;45.184;9.850;2024-02-21T07:38:58;43.40;;;35.53;;
54545;SDS011;40444;45.184;9.850;2024-02-21T07:41:26;41.60;;;34.40;;
54545;SDS011;40444;45.184;9.850;2024-02-21T07:43:58;41.75;;;34.83;;
54545;SDS011;40444;45.184;9.850;2024-02-21T07:46:27;42.70;;;34.13;;
54545;SDS011;40444;45.184;9.850;2024-02-21T07:48:55;40.75;;;34.08;;
54545;SDS011;40444;45.184;9.850;2024-02-21T07:51:27;41.30;;;34.25;;
54545;SDS011;40444;45.184;9.850;2024-02-21T07:53:55;43.42;;;34.72;;
54545;SDS011;40444;45.184;9.850;2024-02-21T07:56:27;43.03;;;34.83;;
54545;SDS011;40444;45.184;9.850;2024-02-21T07:58:57;43.58;;;35.03;;
54545;SDS011;40444;45.184;9.850;2024-02-21T08:01:25;43.40;;;35.35;;
54545;SDS011;40444;45.184;9.850;2024-02-21T08:03:54;52.42;;;41.10;;
54545;SDS011;40444;45.184;9.850;2024-02-21T08:06:22;52.05;;;40.47;;
54545;SDS011;40444;45.184;9.850;2024-02-21T08:08:51;44.38;;;36.55;;
54545;SDS011;40444;45.184;9.850;2024-02-21T08:11:19;36.60;;;30.60;;
54545;SDS011;40444;45.184;9.850;2024-02-21T08:13:48;35.90;;;29.13;;
54545;SDS011;40444;45.184;9.850;2024-02-21T08:16:17;33.33;;;27.73;;
54545;SDS011;40444;45.184;9.850;2024-02-21T08:18:45;34.42;;;28.38;;
54545;SDS011;40444;45.184;9.850;2024-02-21T08:21:14;34.92;;;29.13;;
54545;SDS011;40444;45.184;9.850;2024-02-21T08:23:43;36.65;;;29.48;;
54545;SDS011;40444;45.184;9.850;2024-02-21T08:26:12;30.40;;;25.23;;
54545;SDS011;40444;45.184;9.850;2024-02-21T08:28:41;34.75;;;28.17;;
54545;SDS011;40444;45.184;9.850;2024-02-21T08:31:18;36.35;;;28.70;;
54545;SDS011;40444;45.184;9.850;2024-02-21T08:33:47;35.28;;;26.35;;
54545;SDS011;40444;45.184;9.850;2024-02-21T08:36:19;33.30;;;26.02;;
54545;SDS011;40444;45.184;9.850;2024-02-21T08:38:48;33.55;;;25.80;;
54545;SDS011;40444;45.184;9.850;2024-02-21T08:41:17;35.78;;;27.73;;
54545;SDS011;40444;45.184;9.850;2024-02-21T08:43:46;32.55;;;25.98;;
54545;SDS011;40444;45.184;9.850;2024-02-21T08:46:15;32.05;;;25.88;;
54545;SDS011;40444;45.184;9.850;2024-02-21T08:48:45;35.15;;;26.15;;
54545;SDS011;40444;45.184;9.850;2024-02-21T08:51:16;35.13;;;26.67;;
54545;SDS011;40444;45.184;9.850;2024-02-21T08:53:46;35.97;;;27.38;;
54545;SDS011;40444;45.184;9.850;2024-02-21T08:56:15;37.80;;;29.25;;
54545;SDS011;40444;45.184;9.850;2024-02-21T08:58:44;36.72;;;28.35;;
54545;SDS011;40444;45.184;9.850;2024-02-21T09:01:13;41.75;;;30.45;;
54545;SDS011;40444;45.184;9.850;2024-02-21T09:03:43;45.03;;;32.95;;
54545;SDS011;40444;45.184;9.850;2024-02-21T09:06:11;42.90;;;32.30;;
54545;SDS011;40444;45.184;9.850;2024-02-21T09:08:41;42.67;;;32.03;;
54545;SDS011;40444;45.184;9.850;2024-02-21T09:11:09;46.20;;;33.05;;
54545;SDS011;40444;45.184;9.850;2024-02-21T09:13:37;47.63;;;35.88;;
54545;SDS011;40444;45.184;9.850;2024-02-21T09:16:05;45.42;;;34.65;;
54545;SDS011;40444;45.184;9.850;2024-02-21T09:18:34;44.92;;;33.75;;
54545;SDS011;40444;45.184;9.850;2024-02-21T09:21:02;46.83;;;34.95;;
54545;SDS011;40444;45.184;9.850;2024-02-21T09:23:30;43.90;;;33.38;;
54545;SDS011;40444;45.184;9.850;2024-02-21T09:25:59;39.03;;;30.65;;
54545;SDS011;40444;45.184;9.850;2024-02-21T09:28:31;42.88;;;32.92;;
54545;SDS011;40444;45.184;9.850;2024-02-21T09:31:01;44.78;;;30.60;;
54545;SDS011;40444;45.184;9.850;2024-02-21T09:33:30;41.85;;;30.85;;
54545;SDS011;40444;45.184;9.850;2024-02-21T09:35:59;43.75;;;31.38;;
54545;SDS011;40444;45.184;9.850;2024-02-21T09:38:29;41.63;;;31.05;;
54545;SDS011;40444;45.184;9.850;2024-02-21T09:41:12;41.13;;;30.13;;
54545;SDS011;40444;45.184;9.850;2024-02-21T09:43:53;43.90;;;30.17;;
54545;SDS011;40444;45.184;9.850;2024-02-21T09:46:50;41.30;;;29.63;;
54545;SDS011;40444;45.184;9.850;2024-02-21T09:49:33;42.88;;;30.45;;
54545;SDS011;40444;45.184;9.850;2024-02-21T09:52:06;41.85;;;30.02;;
54545;SDS011;40444;45.184;9.850;2024-02-21T09:54:36;39.00;;;29.85;;
54545;SDS011;40444;45.184;9.850;2024-02-21T09:57:06;43.60;;;32.45;;
54545;SDS011;40444;45.184;9.850;2024-02-21T09:59:34;40.40;;;30.40;;
54545;SDS011;40444;45.184;9.850;2024-02-21T10:02:03;44.85;;;30.92;;
54545;SDS011;40444;45.184;9.850;2024-02-21T10:04:33;38.40;;;31.02;;
54545;SDS011;40444;45.184;9.850;2024-02-21T10:07:02;40.10;;;29.33;;
54545;SDS011;40444;45.184;9.850;2024-02-21T10:09:31;39.38;;;28.60;;
54545;SDS011;40444;45.184;9.850;2024-02-21T10:12:10;39.53;;;29.70;;
54545;SDS011;40444;45.184;9.850;2024-02-21T10:14:41;36.13;;;28.00;;
54545;SDS011;40444;45.184;9.850;2024-02-21T10:17:15;37.38;;;28.17;;
54545;SDS011;40444;45.184;9.850;2024-02-21T10:19:46;36.75;;;27.67;;
54545;SDS011;40444;45.184;9.850;2024-02-21T10:22:15;35.55;;;27.52;;
54545;SDS011;40444;45.184;9.850;2024-02-21T10:24:44;34.20;;;25.85;;
54545;SDS011;40444;45.184;9.850;2024-02-21T10:27:13;35.58;;;26.70;;
54545;SDS011;40444;45.184;9.850;2024-02-21T10:29:41;37.92;;;26.30;;
54545;SDS011;40444;45.184;9.850;2024-02-21T10:32:10;29.55;;;23.27;;
54545;SDS011;40444;45.184;9.850;2024-02-21T10:34:42;36.67;;;25.48;;
54545;SDS011;40444;45.184;9.850;2024-02-21T10:37:12;27.67;;;21.45;;
54545;SDS011;40444;45.184;9.850;2024-02-21T10:39:41;29.35;;;22.92;;
54545;SDS011;40444;45.184;9.850;2024-02-21T10:42:11;28.73;;;21.73;;
54545;SDS011;40444;45.184;9.850;2024-02-21T10:44:41;29.35;;;21.95;;
54545;SDS011;40444;45.184;9.850;2024-02-21T10:47:11;29.48;;;22.15;;
54545;SDS011;40444;45.184;9.850;2024-02-21T10:49:45;27.30;;;20.58;;
54545;SDS011;40444;45.184;9.850;2024-02-21T10:52:24;30.92;;;23.58;;
54545;SDS011;40444;45.184;9.850;2024-02-21T10:57:38;31.60;;;24.20;;
54545;SDS011;40444;45.184;9.850;2024-02-21T11:00:07;33.05;;;25.30;;
54545;SDS011;40444;45.184;9.850;2024-02-21T11:02:40;32.08;;;25.52;;
54545;SDS011;40444;45.184;9.850;2024-02-21T11:05:09;32.95;;;25.40;;
54545;SDS011;40444;45.184;9.850;2024-02-21T11:07:38;33.67;;;25.52;;
54545;SDS011;40444;45.184;9.850;2024-02-21T11:10:20;31.60;;;24.70;;
54545;SDS011;40444;45.184;9.850;2024-02-21T11:12:53;35.33;;;26.80;;
54545;SDS011;40444;45.184;9.850;2024-02-21T11:15:33;33.17;;;25.27;;
54545;SDS011;40444;45.184;9.850;2024-02-21T11:18:02;34.33;;;26.45;;
54545;SDS011;40444;45.184;9.850;2024-02-21T11:20:31;35.28;;;26.45;;
54545;SDS011;40444;45.184;9.850;2024-02-21T11:23:05;34.83;;;28.55;;
54545;SDS011;40444;45.184;9.850;2024-02-21T11:25:33;38.17;;;27.98;;
54545;SDS011;40444;45.184;9.850;2024-02-21T11:28:03;35.72;;;27.35;;
54545;SDS011;40444;45.184;9.850;2024-02-21T11:30:35;34.20;;;26.73;;
54545;SDS011;40444;45.184;9.850;2024-02-21T11:33:05;36.45;;;26.30;;
54545;SDS011;40444;45.184;9.850;2024-02-21T11:35:35;33.58;;;27.83;;
54545;SDS011;40444;45.184;9.850;2024-02-21T11:38:11;35.75;;;27.88;;
54545;SDS011;40444;45.184;9.850;2024-02-21T11:40:45;35.80;;;29.08;;
54545;SDS011;40444;45.184;9.850;2024-02-21T11:43:15;38.03;;;30.25;;
54545;SDS011;40444;45.184;9.850;2024-02-21T11:45:44;41.00;;;31.25;;
54545;SDS011;40444;45.184;9.850;2024-02-21T11:48:13;41.92;;;31.42;;
54545;SDS011;40444;45.184;9.850;2024-02-21T11:50:42;39.28;;;31.70;;
54545;SDS011;40444;45.184;9.850;2024-02-21T11:53:21;41.67;;;33.78;;
54545;SDS011;40444;45.184;9.850;2024-02-21T11:55:50;44.97;;;35.20;;
54545;SDS011;40444;45.184;9.850;2024-02-21T11:58:19;42.30;;;34.28;;
54545;SDS011;40444;45.184;9.850;2024-02-21T12:00:48;41.95;;;33.58;;
54545;SDS011;40444;45.184;9.850;2024-02-21T12:03:16;44.92;;;34.45;;
54545;SDS011;40444;45.184;9.850;2024-02-21T12:05:45;43.03;;;34.55;;
54545;SDS011;40444;45.184;9.850;2024-02-21T12:08:15;42.85;;;33.03;;
54545;SDS011;40444;45.184;9.850;2024-02-21T12:10:44;45.05;;;33.72;;
54545;SDS011;40444;45.184;9.850;2024-02-21T12:13:12;42.33;;;32.33;;
54545;SDS011;40444;45.184;9.850;2024-02-21T12:15:40;44.03;;;34.15;;
54545;SDS011;40444;45.184;9.850;2024-02-21T12:18:09;41.78;;;32.60;;
54545;SDS011;40444;45.184;9.850;2024-02-21T12:20:39;42.17;;;32.90;;
54545;SDS011;40444;45.184;9.850;2024-02-21T12:23:10;41.17;;;31.52;;
54545;SDS011;40444;45.184;9.850;2024-02-21T12:25:41;44.65;;;35.00;;
54545;SDS011;40444;45.184;9.850;2024-02-21T12:28:11;45.72;;;33.22;;
54545;SDS011;40444;45.184;9.850;2024-02-21T12:30:40;49.58;;;37.72;;
54545;SDS011;40444;45.184;9.850;2024-02-21T12:33:08;51.22;;;39.67;;
54545;SDS011;40444;45.184;9.850;2024-02-21T12:35:37;45.30;;;35.25;;
54545;SDS011;40444;45.184;9.850;2024-02-21T12:38:06;43.47;;;33.92;;
54545;SDS011;40444;45.184;9.850;2024-02-21T12:40:35;41.30;;;32.97;;
54545;SDS011;40444;45.184;9.850;2024-02-21T12:43:03;38.85;;;31.02;;
54545;SDS011;40444;45.184;9.850;2024-02-21T12:45:32;41.05;;;32.03;;
54545;SDS011;40444;45.184;9.850;2024-02-21T12:48:02;51.50;;;37.80;;
54545;SDS011;40444;45.184;9.850;2024-02-21T12:50:32;39.97;;;31.92;;
54545;SDS011;40444;45.184;9.850;2024-02-21T12:53:01;38.78;;;31.42;;
54545;SDS011;40444;45.184;9.850;2024-02-21T12:55:33;37.72;;;29.83;;
54545;SDS011;40444;45.184;9.850;2024-02-21T12:58:03;43.72;;;35.28;;
54545;SDS011;40444;45.184;9.850;2024-02-21T13:00:33;38.13;;;30.98;;
54545;SDS011;40444;45.184;9.850;2024-02-21T13:03:03;41.25;;;31.30;;
54545;SDS011;40444;45.184;9.850;2024-02-21T13:05:31;35.92;;;28.77;;
54545;SDS011;40444;45.184;9.850;2024-02-21T13:08:00;38.25;;;31.42;;
54545;SDS011;40444;45.184;9.850;2024-02-21T13:10:29;35.22;;;28.92;;
54545;SDS011;40444;45.184;9.850;2024-02-21T13:12:58;37.20;;;29.73;;
54545;SDS011;40444;45.184;9.850;2024-02-21T13:15:26;35.95;;;29.27;;
54545;SDS011;40444;45.184;9.850;2024-02-21T13:17:56;36.10;;;27.65;;
54545;SDS011;40444;45.184;9.850;2024-02-21T13:20:29;33.97;;;27.17;;
54545;SDS011;40444;45.184;9.850;2024-02-21T13:22:57;34.05;;;27.20;;
54545;SDS011;40444;45.184;9.850;2024-02-21T13:25:26;34.38;;;28.30;;
54545;SDS011;40444;45.184;9.850;2024-02-21T13:27:54;35.58;;;28.38;;
54545;SDS011;40444;45.184;9.850;2024-02-21T13:30:24;37.45;;;29.98;;
54545;SDS011;40444;45.184;9.850;2024-02-21T13:32:53;36.03;;;29.55;;
54545;SDS011;40444;45.184;9.850;2024-02-21T13:35:25;34.92;;;27.42;;
54545;SDS011;40444;45.184;9.850;2024-02-21T13:37:54;36.30;;;30.10;;
54545;SDS011;40444;45.184;9.850;2024-02-21T13:40:22;37.75;;;29.45;;
54545;SDS011;40444;45.184;9.850;2024-02-21T13:42:51;38.05;;;29.13;;
54545;SDS011;40444;45.184;9.850;2024-02-21T13:45:19;38.50;;;30.20;;
54545;SDS011;40444;45.184;9.850;2024-02-21T13:47:47;41.55;;;30.60;;
54545;SDS011;40444;45.184;9.850;2024-02-21T13:50:16;38.50;;;29.88;;
54545;SDS011;40444;45.184;9.850;2024-02-21T13:52:54;36.38;;;29.85;;
54545;SDS011;40444;45.184;9.850;2024-02-21T13:55:23;39.13;;;30.42;;
54545;SDS011;40444;45.184;9.850;2024-02-21T13:57:55;40.33;;;31.10;;
54545;SDS011;40444;45.184;9.850;2024-02-21T14:00:23;38.65;;;31.50;;
54545;SDS011;40444;45.184;9.850;2024-02-21T14:02:52;42.00;;;31.67;;
54545;SDS011;40444;45.184;9.850;2024-02-21T14:05:21;38.70;;;32.42;;
54545;SDS011;40444;45.184;9.850;2024-02-21T14:07:50;35.35;;;29.25;;
54545;SDS011;40444;45.184;9.850;2024-02-21T14:10:18;36.78;;;29.95;;
54545;SDS011;40444;45.184;9.850;2024-02-21T14:12:47;37.25;;;31.80;;
54545;SDS011;40444;45.184;9.850;2024-02-21T14:15:16;42.47;;;31.13;;
54545;SDS011;40444;45.184;9.850;2024-02-21T14:17:44;36.70;;;30.05;;
54545;SDS011;40444;45.184;9.850;2024-02-21T14:20:13;38.67;;;31.05;;
54545;SDS011;40444;45.184;9.850;2024-02-21T14:22:44;40.25;;;30.95;;
54545;SDS011;40444;45.184;9.850;2024-02-21T14:25:13;37.92;;;30.75;;
54545;SDS011;40444;45.184;9.850;2024-02-21T14:27:44;38.83;;;30.85;;
54545;SDS011;40444;45.184;9.850;2024-02-21T14:30:12;39.42;;;31.25;;
54545;SDS011;40444;45.184;9.850;2024-02-21T14:32:43;39.10;;;30.67;;
54545;SDS011;40444;45.184;9.850;2024-02-21T14:35:14;40.67;;;30.65;;
54545;SDS011;40444;45.184;9.850;2024-02-21T14:37:43;38.75;;;31.58;;
54545;SDS011;40444;45.184;9.850;2024-02-21T14:40:13;38.13;;;30.52;;